Time,TemperatureF,DewpointF,PressureIn,WindDirection,WindDirectionDegrees,WindSpeedMPH,WindSpeedGustMPH,Humidity,HourlyPrecipIn,Conditions,Clouds,dailyrainin,SoftwareType,DateUTC
2013-02-10 00:01:00,31.0,29.0,30.34,SSE,148,0.0,0.0,92,0.00,,,0.01,,2013-02-10 05:01:00,
2013-02-10 00:11:00,31.0,29.0,30.34,SSE,148,0.0,0.0,92,0.00,,,0.01,,2013-02-10 05:11:00,
2013-02-10 00:22:00,31.0,29.0,30.34,SSE,148,0.0,0.0,93,0.00,,,0.01,,2013-02-10 05:22:00,
2013-02-10 00:32:00,31.0,29.0,30.34,SSE,163,0.0,1.0,93,0.00,,,0.01,,2013-02-10 05:32:00,
2013-02-10 00:42:00,31.0,29.0,30.34,SSE,163,0.0,1.0,93,0.00,,,0.01,,2013-02-10 05:42:00,
2013-02-10 00:52:00,31.0,29.0,30.35,SSE,163,0.0,1.0,93,0.00,,,0.01,,2013-02-10 05:52:00,
2013-02-10 01:02:00,30.0,28.0,30.35,SSE,163,0.0,0.0,93,0.00,,,0.01,,2013-02-10 06:02:00,
2013-02-10 01:11:00,30.0,28.0,30.35,SSE,163,0.0,0.0,93,0.00,,,0.01,,2013-02-10 06:11:00,
2013-02-10 01:21:00,30.0,28.0,30.35,SSE,164,0.0,0.0,93,0.00,,,0.01,,2013-02-10 06:21:00,
2013-02-10 01:32:00,30.0,28.0,30.35,SSE,163,0.0,0.0,93,0.00,,,0.01,,2013-02-10 06:32:00,
2013-02-10 01:42:00,30.0,28.0,30.35,SSE,163,0.0,0.0,93,0.00,,,0.01,,2013-02-10 06:42:00,
2013-02-10 01:52:00,30.0,28.0,30.35,SSE,164,0.0,0.0,94,0.00,,,0.01,,2013-02-10 06:52:00,
2013-02-10 02:01:00,30.0,28.0,30.35,SSE,163,0.0,0.0,94,0.00,,,0.01,,2013-02-10 07:01:00,
2013-02-10 02:11:00,30.0,28.0,30.35,SSE,163,0.0,0.0,94,0.00,,,0.01,,2013-02-10 07:11:00,
2013-02-10 02:21:00,31.0,30.0,30.35,SSE,163,0.0,1.0,95,0.00,,,0.01,,2013-02-10 07:21:00,
2013-02-10 02:32:00,31.0,29.0,30.35,SSE,163,0.0,1.0,94,0.00,,,0.01,,2013-02-10 07:32:00,
2013-02-10 02:42:00,31.0,29.0,30.35,SSE,163,0.0,1.0,94,0.00,,,0.01,,2013-02-10 07:42:00,
2013-02-10 02:52:00,31.0,29.0,30.35,SSE,163,0.0,1.0,94,0.00,,,0.01,,2013-02-10 07:52:00,
2013-02-10 03:01:00,31.0,29.0,30.35,SSE,163,0.0,0.0,93,0.00,,,0.01,,2013-02-10 08:01:00,
2013-02-10 03:11:00,31.0,29.0,30.35,SSE,163,0.0,0.0,93,0.00,,,0.01,,2013-02-10 08:11:00,
2013-02-10 03:21:00,31.0,29.0,30.35,SSE,163,0.0,0.0,94,0.00,,,0.01,,2013-02-10 08:21:00,
2013-02-10 03:32:00,30.0,28.0,30.35,SSE,163,0.0,0.0,94,0.00,,,0.01,,2013-02-10 08:32:00,
2013-02-10 03:43:00,30.0,28.0,30.35,SSE,163,0.0,0.0,94,0.00,,,0.01,,2013-02-10 08:43:00,
2013-02-10 03:52:00,30.0,28.0,30.35,SSE,163,0.0,0.0,94,0.00,,,0.01,,2013-02-10 08:52:00,
2013-02-10 04:02:00,30.0,28.0,30.35,SSE,164,0.0,0.0,94,0.00,,,0.01,,2013-02-10 09:02:00,
2013-02-10 04:11:00,30.0,28.0,30.35,SSE,164,0.0,0.0,94,0.00,,,0.01,,2013-02-10 09:11:00,
2013-02-10 04:21:00,30.0,29.0,30.35,SSE,164,0.0,0.0,95,0.00,,,0.01,,2013-02-10 09:21:00,
2013-02-10 04:32:00,31.0,30.0,30.35,SSE,164,0.0,0.0,95,0.00,,,0.01,,2013-02-10 09:32:00,
2013-02-10 04:42:00,31.0,30.0,30.35,SSE,164,0.0,0.0,95,0.00,,,0.01,,2013-02-10 09:42:00,
2013-02-10 04:52:00,31.0,30.0,30.34,SSE,162,0.0,0.0,95,0.00,,,0.01,,2013-02-10 09:52:00,
2013-02-10 05:01:00,32.0,31.0,30.35,SSE,163,0.0,0.0,95,0.00,,,0.01,,2013-02-10 10:01:00,
2013-02-10 05:11:00,33.0,32.0,30.36,WSW,246,0.0,0.0,95,0.00,,,0.01,,2013-02-10 10:11:00,
2013-02-10 05:21:00,33.0,32.0,30.36,WSW,246,0.0,0.0,95,0.00,,,0.01,,2013-02-10 10:21:00,
2013-02-10 05:31:00,34.0,33.0,30.35,WSW,246,0.0,1.0,95,0.00,,,0.01,,2013-02-10 10:31:00,
2013-02-10 05:42:00,34.0,33.0,30.35,WSW,246,0.0,1.0,95,0.00,,,0.01,,2013-02-10 10:42:00,
2013-02-10 05:52:00,34.0,32.0,30.38,SW,230,0.0,1.0,94,0.00,,,0.01,,2013-02-10 10:52:00,
2013-02-10 06:01:00,34.0,32.0,30.38,SW,231,0.0,0.0,94,0.00,,,0.01,,2013-02-10 11:01:00,
2013-02-10 06:11:00,34.0,32.0,30.38,SW,231,0.0,0.0,94,0.00,,,0.01,,2013-02-10 11:11:00,
2013-02-10 06:22:00,34.0,33.0,30.37,SW,231,0.0,0.0,95,0.00,,,0.01,,2013-02-10 11:22:00,
2013-02-10 06:32:00,34.0,32.0,30.38,SW,231,0.0,0.0,94,0.00,,,0.01,,2013-02-10 11:32:00,
2013-02-10 06:42:00,34.0,32.0,30.38,SW,231,0.0,0.0,94,0.00,,,0.01,,2013-02-10 11:42:00,
2013-02-10 06:52:00,34.0,32.0,30.39,SW,231,0.0,0.0,94,0.00,,,0.01,,2013-02-10 11:52:00,
2013-02-10 07:02:00,34.0,32.0,30.39,SW,231,0.0,0.0,94,0.00,,,0.01,,2013-02-10 12:02:00,
2013-02-10 07:12:00,34.0,32.0,30.39,SW,231,0.0,0.0,94,0.00,,,0.01,,2013-02-10 12:12:00,
2013-02-10 07:21:00,34.0,32.0,30.40,SW,231,0.0,0.0,94,0.00,,,0.01,,2013-02-10 12:21:00,
2013-02-10 07:32:00,34.0,33.0,30.40,SW,231,0.0,0.0,95,0.00,,,0.01,,2013-02-10 12:32:00,
2013-02-10 07:42:00,34.0,33.0,30.40,SW,231,0.0,0.0,95,0.00,,,0.01,,2013-02-10 12:42:00,
2013-02-10 07:52:00,34.0,33.0,30.41,SW,231,0.0,0.0,95,0.00,,,0.01,,2013-02-10 12:52:00,
2013-02-10 08:02:00,33.0,32.0,30.42,SW,231,0.0,0.0,95,0.00,,,0.01,,2013-02-10 13:02:00,
2013-02-10 08:11:00,33.0,32.0,30.42,SW,231,0.0,0.0,95,0.00,,,0.01,,2013-02-10 13:11:00,
2013-02-10 08:21:00,34.0,33.0,30.41,SW,231,0.0,0.0,95,0.00,,,0.01,,2013-02-10 13:21:00,
2013-02-10 08:31:00,36.0,35.0,30.42,SW,231,0.0,0.0,96,0.00,,,0.01,,2013-02-10 13:31:00,
2013-02-10 08:41:00,36.0,35.0,30.42,SW,231,0.0,0.0,96,0.00,,,0.01,,2013-02-10 13:41:00,
2013-02-10 08:52:00,36.0,35.0,30.42,SW,231,0.0,0.0,96,0.00,,,0.01,,2013-02-10 13:52:00,
2013-02-10 09:02:00,36.0,35.0,30.42,SW,231,0.0,0.0,96,0.00,,,0.01,,2013-02-10 14:02:00,
2013-02-10 09:11:00,36.0,35.0,30.42,SW,231,0.0,0.0,96,0.00,,,0.01,,2013-02-10 14:11:00,
2013-02-10 11:42:00,58.0,43.0,30.42,NE,41,3.0,6.0,58,0.00,,,0.00,,2013-02-10 16:42:00,
2013-02-10 11:52:00,58.0,43.0,30.42,NE,41,3.0,6.0,58,0.00,,,0.00,,2013-02-10 16:52:00,
2013-02-10 12:02:00,58.0,43.0,30.41,NE,53,6.0,9.0,58,0.00,,,0.00,,2013-02-10 17:02:00,
2013-02-10 12:12:00,58.0,43.0,30.41,NE,53,6.0,9.0,58,0.00,,,0.00,,2013-02-10 17:12:00,
2013-02-10 12:22:00,59.0,44.0,30.39,East,97,3.0,8.0,58,0.00,,,0.00,,2013-02-10 17:22:00,
2013-02-10 12:32:00,59.0,44.0,30.38,NE,40,2.0,7.0,58,0.00,,,0.00,,2013-02-10 17:32:00,
2013-02-10 12:42:00,60.0,44.0,30.37,SSE,150,3.0,6.0,56,0.00,,,0.00,,2013-02-10 17:42:00,
2013-02-10 12:52:00,60.0,44.0,30.37,SSE,150,3.0,6.0,56,0.00,,,0.00,,2013-02-10 17:52:00,
2013-02-10 13:02:00,62.0,46.0,30.37,WSW,255,2.0,5.0,55,0.00,,,0.00,,2013-02-10 18:02:00,
2013-02-10 13:12:00,62.0,46.0,30.35,East,99,3.0,7.0,56,0.00,,,0.00,,2013-02-10 18:12:00,
2013-02-10 13:22:00,62.0,46.0,30.35,East,99,3.0,7.0,56,0.00,,,0.00,,2013-02-10 18:22:00,
2013-02-10 13:32:00,62.0,47.0,30.35,ENE,65,3.0,8.0,59,0.00,,,0.00,,2013-02-10 18:32:00,
2013-02-10 13:42:00,62.0,47.0,30.35,ENE,65,3.0,8.0,59,0.00,,,0.00,,2013-02-10 18:42:00,
2013-02-10 13:52:00,64.0,48.0,30.34,ENE,74,2.0,7.0,57,0.00,,,0.00,,2013-02-10 18:52:00,
2013-02-10 14:02:00,65.0,49.0,30.33,NE,56,4.0,7.0,57,0.00,,,0.00,,2013-02-10 19:02:00,
2013-02-10 14:12:00,65.0,49.0,30.31,ENE,76,4.0,10.0,56,0.00,,,0.00,,2013-02-10 19:12:00,
2013-02-10 14:22:00,65.0,49.0,30.31,ENE,76,4.0,10.0,56,0.00,,,0.00,,2013-02-10 19:22:00,
2013-02-10 14:32:00,65.0,49.0,30.29,ESE,109,3.0,8.0,56,0.00,,,0.00,,2013-02-10 19:32:00,
2013-02-10 14:42:00,65.0,49.0,30.28,East,91,2.0,6.0,57,0.00,,,0.00,,2013-02-10 19:42:00,
2013-02-10 14:52:00,65.0,49.0,30.28,East,91,2.0,6.0,57,0.00,,,0.00,,2013-02-10 19:52:00,
2013-02-10 15:02:00,65.0,50.0,30.28,ESE,121,2.0,8.0,58,0.00,,,0.00,,2013-02-10 20:02:00,
2013-02-10 15:11:00,65.0,50.0,30.28,ESE,121,2.0,8.0,58,0.00,,,0.00,,2013-02-10 20:11:00,
2013-02-10 15:22:00,64.0,49.0,30.28,East,91,4.0,7.0,58,0.00,,,0.00,,2013-02-10 20:22:00,
2013-02-10 15:32:00,64.0,49.0,30.28,SE,141,1.0,6.0,59,0.00,,,0.00,,2013-02-10 20:32:00,
2013-02-10 15:42:00,64.0,49.0,30.28,North,8,2.0,7.0,59,0.00,,,0.00,,2013-02-10 20:42:00,
2013-02-10 15:52:00,64.0,49.0,30.28,North,8,2.0,7.0,59,0.00,,,0.00,,2013-02-10 20:52:00,
2013-02-10 16:02:00,64.0,50.0,30.27,ENE,58,3.0,6.0,61,0.00,,,0.00,,2013-02-10 21:02:00,
2013-02-10 16:11:00,64.0,50.0,30.27,ENE,58,3.0,6.0,61,0.00,,,0.00,,2013-02-10 21:11:00,
2013-02-10 16:22:00,64.0,51.0,30.27,SSW,197,2.0,5.0,63,0.00,,,0.00,,2013-02-10 21:22:00,
2013-02-10 16:32:00,65.0,52.0,30.25,East,89,1.0,9.0,63,0.00,,,0.00,,2013-02-10 21:32:00,
2013-02-10 16:42:00,65.0,52.0,30.25,SW,236,0.0,0.0,63,0.00,,,0.00,,2013-02-10 21:42:00,
2013-02-10 16:52:00,65.0,52.0,30.25,SW,236,0.0,0.0,63,0.00,,,0.00,,2013-02-10 21:52:00,
2013-02-10 17:02:00,65.0,53.0,30.25,SE,136,0.0,1.0,66,0.00,,,0.00,,2013-02-10 22:02:00,
2013-02-10 17:11:00,64.0,52.0,30.24,SE,124,0.0,3.0,66,0.00,,,0.00,,2013-02-10 22:11:00,
2013-02-10 17:22:00,64.0,52.0,30.24,SE,124,0.0,3.0,66,0.00,,,0.00,,2013-02-10 22:22:00,
2013-02-10 17:32:00,64.0,52.0,30.23,West,281,0.0,3.0,66,0.00,,,0.00,,2013-02-10 22:32:00,
2013-02-10 17:42:00,64.0,52.0,30.23,West,281,0.0,3.0,66,0.00,,,0.00,,2013-02-10 22:42:00,
2013-02-10 17:53:00,64.0,52.0,30.23,West,281,0.0,3.0,66,0.00,,,0.00,,2013-02-10 22:53:00,
2013-02-10 18:02:00,64.0,52.0,30.23,West,281,0.0,3.0,66,0.00,,,0.00,,2013-02-10 23:02:00,
2013-02-10 20:32:00,59.0,52.0,30.19,SSE,168,2.0,6.0,79,0.00,,,0.00,,2013-02-11 01:32:00,
2013-02-10 20:42:00,59.0,53.0,30.22,SW,215,1.0,3.0,80,0.00,,,0.00,,2013-02-11 01:42:00,
2013-02-10 20:52:00,59.0,53.0,30.22,SW,215,1.0,3.0,80,0.00,,,0.00,,2013-02-11 01:52:00,
2013-02-10 21:01:00,59.0,53.0,30.22,East,91,0.0,3.0,80,0.00,,,0.00,,2013-02-11 02:01:00,
2013-02-10 21:11:00,59.0,53.0,30.22,East,91,0.0,3.0,80,0.00,,,0.00,,2013-02-11 02:11:00,
2013-02-10 21:21:00,59.0,53.0,30.22,East,92,0.0,1.0,81,0.00,,,0.00,,2013-02-11 02:21:00,
2013-02-10 21:32:00,59.0,54.0,30.22,ENE,58,0.0,4.0,82,0.00,,,0.00,,2013-02-11 02:32:00,
2013-02-10 21:42:00,58.0,53.0,30.21,ENE,68,0.0,2.0,82,0.00,,,0.00,,2013-02-11 02:42:00,
2013-02-10 21:52:00,58.0,53.0,30.21,ENE,68,0.0,2.0,82,0.00,,,0.00,,2013-02-11 02:52:00,
2013-02-10 22:02:00,58.0,53.0,30.21,East,82,1.0,2.0,84,0.00,,,0.00,,2013-02-11 03:02:00,
2013-02-10 22:11:00,58.0,53.0,30.21,East,82,1.0,2.0,84,0.00,,,0.00,,2013-02-11 03:11:00,
2013-02-10 22:21:00,58.0,53.0,30.22,ENE,65,1.0,2.0,84,0.00,,,0.00,,2013-02-11 03:21:00,
2013-02-10 22:32:00,57.0,53.0,30.23,ENE,70,0.0,1.0,85,0.00,,,0.00,,2013-02-11 03:32:00,
2013-02-10 22:42:00,57.0,53.0,30.23,ENE,70,0.0,1.0,88,0.00,,,0.00,,2013-02-11 03:42:00,
2013-02-10 22:52:00,57.0,53.0,30.23,ENE,70,0.0,1.0,88,0.00,,,0.00,,2013-02-11 03:52:00,
2013-02-10 23:01:00,56.0,53.0,30.22,ENE,70,0.0,1.0,91,0.02,,,0.02,,2013-02-11 04:01:00,
2013-02-10 23:11:00,56.0,53.0,30.22,ENE,70,0.0,1.0,91,0.02,,,0.02,,2013-02-11 04:11:00,
2013-02-10 23:22:00,55.0,53.0,30.23,ENE,70,1.0,1.0,92,0.02,,,0.02,,2013-02-11 04:22:00,
2013-02-10 23:32:00,55.0,53.0,30.23,ENE,70,1.0,1.0,92,0.02,,,0.02,,2013-02-11 04:32:00,
2013-02-10 23:42:00,55.0,53.0,30.23,ENE,70,1.0,1.0,92,0.02,,,0.02,,2013-02-11 04:42:00,
2013-02-10 23:52:00,55.0,53.0,30.23,ENE,70,1.0,1.0,92,0.02,,,0.02,,2013-02-11 04:52:00,